Kezdőlap
METAR-TAF:

METAR-TAF

Repülőterek :

Yap, Mikronézia

földrajzi szélesség: 09-29N, földrajzi hosszúság: 138-05E, magasság: 28 m

Jelenlegi meteorológiai megfigyelések

A jelentés 31 perccel ezelõtt készült, 14:54 UTC
Szélcsend
Hőmérséklet 27°C
Páratartalom 89%
Légköri nyomás 1007 hPa
Látótávolság: 19.3 km
Szórványos felhőzet 1600 lábon, Tornyos gomolyfelhő.
Szakadozott felhőzet 13000 lábon
Borult 30000 lábon

METAR: PTYA 191454Z 00000KT 12SM SCT016TCU BKN130 OVC300 27/25 A2974 RMK TCU N-E-SE SLP073 8/271 T02660253 403040256 58005

Idő: 01:25 (15:25 UTC)

Előrejelzés

A jelentés 3 órával és 57 perccel ezelõtt készült, 11:28 UTC
Az előrejelzés 19-én 12 óra UTC és 20-én 12 óra UTC között érvényes
Északnyugati szél 9 kt
Látótávolság: 10 km
Kevés felhő 1600 lábon
Szórványos felhőzet 13000 lábon
Záporok a közelben

TAF: PTYA 191128Z 1912/2012 32009KT P6SM VCSH FEW016 SCT130

Meteorológiai megfigyelések és előrejelzések több, mint 4000 repülőtéren (METAR és TAF jelentéseket).

A térképen piros és sárga pontok jelzik az elérhető meteorológiai állomásokat.

Mozgassa az egeret a pont fölött, hogy megjelenjen az állomás neve.

Azután kattintson az időjárási megfigyelések és előrejelzések megtekintéséhez.

A térkép megváltoztatása: kattintson a fekete keresztel jelölt zöld gombra ráközelítéshez, a vonallal jelölt zöld gombra távolításhoz, vagy a zöld nyilakra a szomszédos térképek eléréséhez.


METAR-TAF: